sensor_id;sensor_type;location;lat;lon;timestamp;P1;durP1;ratioP1;P2;durP2;ratioP2
12681;SDS011;6405;59.208;18.216;2023-03-23T00:01:17;4.20;;;1.10;;
12681;SDS011;6405;59.208;18.216;2023-03-23T00:03:46;3.43;;;1.07;;
12681;SDS011;6405;59.208;18.216;2023-03-23T00:06:17;3.90;;;1.33;;
12681;SDS011;6405;59.208;18.216;2023-03-23T00:08:44;5.87;;;1.50;;
12681;SDS011;6405;59.208;18.216;2023-03-23T00:11:21;4.57;;;1.10;;
12681;SDS011;6405;59.208;18.216;2023-03-23T00:13:49;5.10;;;1.93;;
12681;SDS011;6405;59.208;18.216;2023-03-23T00:16:17;5.03;;;1.47;;
12681;SDS011;6405;59.208;18.216;2023-03-23T00:18:55;4.50;;;1.40;;
12681;SDS011;6405;59.208;18.216;2023-03-23T00:21:23;4.47;;;1.70;;
12681;SDS011;6405;59.208;18.216;2023-03-23T00:24:01;7.30;;;1.87;;
12681;SDS011;6405;59.208;18.216;2023-03-23T00:26:32;3.97;;;1.57;;
12681;SDS011;6405;59.208;18.216;2023-03-23T00:29:02;4.40;;;1.40;;
12681;SDS011;6405;59.208;18.216;2023-03-23T00:31:29;12.03;;;2.77;;
12681;SDS011;6405;59.208;18.216;2023-03-23T00:34:00;7.37;;;1.97;;
12681;SDS011;6405;59.208;18.216;2023-03-23T00:36:29;6.30;;;1.57;;
12681;SDS011;6405;59.208;18.216;2023-03-23T00:38:56;5.73;;;1.70;;
12681;SDS011;6405;59.208;18.216;2023-03-23T00:41:26;6.63;;;2.03;;
12681;SDS011;6405;59.208;18.216;2023-03-23T00:43:56;4.67;;;1.60;;
12681;SDS011;6405;59.208;18.216;2023-03-23T00:46:23;9.60;;;1.90;;
12681;SDS011;6405;59.208;18.216;2023-03-23T00:48:50;8.53;;;2.03;;
12681;SDS011;6405;59.208;18.216;2023-03-23T00:51:17;8.50;;;1.90;;
12681;SDS011;6405;59.208;18.216;2023-03-23T00:53:44;10.33;;;2.33;;
12681;SDS011;6405;59.208;18.216;2023-03-23T00:56:10;9.43;;;1.90;;
12681;SDS011;6405;59.208;18.216;2023-03-23T00:58:36;6.73;;;1.57;;
12681;SDS011;6405;59.208;18.216;2023-03-23T01:01:02;7.70;;;1.83;;
12681;SDS011;6405;59.208;18.216;2023-03-23T01:03:28;10.90;;;2.37;;
12681;SDS011;6405;59.208;18.216;2023-03-23T01:05:54;9.67;;;2.53;;
12681;SDS011;6405;59.208;18.216;2023-03-23T01:08:21;8.23;;;1.87;;
12681;SDS011;6405;59.208;18.216;2023-03-23T01:10:48;5.17;;;1.43;;
12681;SDS011;6405;59.208;18.216;2023-03-23T01:13:15;9.03;;;2.03;;
12681;SDS011;6405;59.208;18.216;2023-03-23T01:15:41;6.63;;;1.77;;
12681;SDS011;6405;59.208;18.216;2023-03-23T01:18:08;9.13;;;1.87;;
12681;SDS011;6405;59.208;18.216;2023-03-23T01:20:36;11.67;;;2.47;;
12681;SDS011;6405;59.208;18.216;2023-03-23T01:23:02;8.00;;;2.67;;
12681;SDS011;6405;59.208;18.216;2023-03-23T01:25:32;11.57;;;2.47;;
12681;SDS011;6405;59.208;18.216;2023-03-23T01:28:01;8.37;;;1.83;;
12681;SDS011;6405;59.208;18.216;2023-03-23T01:30:27;9.53;;;2.13;;
12681;SDS011;6405;59.208;18.216;2023-03-23T01:32:53;10.70;;;2.10;;
12681;SDS011;6405;59.208;18.216;2023-03-23T01:35:20;11.53;;;2.50;;
12681;SDS011;6405;59.208;18.216;2023-03-23T01:37:46;11.70;;;2.80;;
12681;SDS011;6405;59.208;18.216;2023-03-23T01:40:13;9.90;;;2.80;;
12681;SDS011;6405;59.208;18.216;2023-03-23T01:42:40;6.30;;;1.73;;
12681;SDS011;6405;59.208;18.216;2023-03-23T01:47:56;11.10;;;2.47;;
12681;SDS011;6405;59.208;18.216;2023-03-23T01:50:34;9.27;;;3.00;;
12681;SDS011;6405;59.208;18.216;2023-03-23T01:53:06;10.80;;;2.57;;
12681;SDS011;6405;59.208;18.216;2023-03-23T01:55:34;14.33;;;2.37;;
12681;SDS011;6405;59.208;18.216;2023-03-23T01:58:03;11.53;;;2.20;;
12681;SDS011;6405;59.208;18.216;2023-03-23T02:00:29;8.13;;;2.43;;
12681;SDS011;6405;59.208;18.216;2023-03-23T02:02:55;15.20;;;2.63;;
12681;SDS011;6405;59.208;18.216;2023-03-23T02:05:24;6.47;;;2.40;;
12681;SDS011;6405;59.208;18.216;2023-03-23T02:07:58;13.17;;;3.17;;
12681;SDS011;6405;59.208;18.216;2023-03-23T02:10:28;14.30;;;3.20;;
12681;SDS011;6405;59.208;18.216;2023-03-23T02:12:55;11.40;;;2.47;;
12681;SDS011;6405;59.208;18.216;2023-03-23T02:15:21;15.07;;;2.77;;
12681;SDS011;6405;59.208;18.216;2023-03-23T02:18:13;10.03;;;2.73;;
12681;SDS011;6405;59.208;18.216;2023-03-23T02:20:55;10.87;;;2.60;;
12681;SDS011;6405;59.208;18.216;2023-03-23T02:23:49;10.63;;;2.93;;
12681;SDS011;6405;59.208;18.216;2023-03-23T02:35:22;6.83;;;2.07;;
12681;SDS011;6405;59.208;18.216;2023-03-23T02:37:57;12.27;;;2.50;;
12681;SDS011;6405;59.208;18.216;2023-03-23T02:40:33;12.87;;;3.00;;
12681;SDS011;6405;59.208;18.216;2023-03-23T02:43:10;10.30;;;2.47;;
12681;SDS011;6405;59.208;18.216;2023-03-23T02:45:40;12.13;;;2.67;;
12681;SDS011;6405;59.208;18.216;2023-03-23T02:48:09;14.83;;;2.87;;
12681;SDS011;6405;59.208;18.216;2023-03-23T02:50:36;7.33;;;2.07;;
12681;SDS011;6405;59.208;18.216;2023-03-23T02:53:05;17.73;;;3.30;;
12681;SDS011;6405;59.208;18.216;2023-03-23T02:55:36;18.23;;;2.87;;
12681;SDS011;6405;59.208;18.216;2023-03-23T02:58:07;14.77;;;3.40;;
12681;SDS011;6405;59.208;18.216;2023-03-23T03:00:36;8.10;;;2.57;;
12681;SDS011;6405;59.208;18.216;2023-03-23T03:03:02;13.00;;;2.60;;
12681;SDS011;6405;59.208;18.216;2023-03-23T03:10:59;14.17;;;2.93;;
12681;SDS011;6405;59.208;18.216;2023-03-23T03:13:48;12.10;;;2.83;;
12681;SDS011;6405;59.208;18.216;2023-03-23T03:16:37;11.87;;;3.07;;
12681;SDS011;6405;59.208;18.216;2023-03-23T03:19:10;12.50;;;2.57;;
12681;SDS011;6405;59.208;18.216;2023-03-23T03:21:48;17.03;;;3.17;;
12681;SDS011;6405;59.208;18.216;2023-03-23T03:24:17;17.43;;;3.10;;
12681;SDS011;6405;59.208;18.216;2023-03-23T03:26:48;15.17;;;3.00;;
12681;SDS011;6405;59.208;18.216;2023-03-23T03:29:16;18.10;;;3.17;;
12681;SDS011;6405;59.208;18.216;2023-03-23T03:31:45;7.43;;;2.47;;
12681;SDS011;6405;59.208;18.216;2023-03-23T03:34:13;12.07;;;2.97;;
12681;SDS011;6405;59.208;18.216;2023-03-23T03:36:42;10.33;;;2.30;;
12681;SDS011;6405;59.208;18.216;2023-03-23T03:39:10;14.80;;;4.03;;
12681;SDS011;6405;59.208;18.216;2023-03-23T03:41:39;15.00;;;2.63;;
12681;SDS011;6405;59.208;18.216;2023-03-23T03:44:06;13.83;;;3.03;;
12681;SDS011;6405;59.208;18.216;2023-03-23T03:46:32;16.73;;;3.43;;
12681;SDS011;6405;59.208;18.216;2023-03-23T03:48:59;13.97;;;2.73;;
12681;SDS011;6405;59.208;18.216;2023-03-23T03:51:27;16.73;;;3.20;;
12681;SDS011;6405;59.208;18.216;2023-03-23T03:53:54;12.47;;;3.30;;
12681;SDS011;6405;59.208;18.216;2023-03-23T03:56:20;21.20;;;3.23;;
12681;SDS011;6405;59.208;18.216;2023-03-23T03:58:47;16.20;;;3.23;;
12681;SDS011;6405;59.208;18.216;2023-03-23T04:01:14;16.10;;;3.23;;
12681;SDS011;6405;59.208;18.216;2023-03-23T04:03:41;16.83;;;3.33;;
12681;SDS011;6405;59.208;18.216;2023-03-23T04:06:07;11.17;;;3.73;;
12681;SDS011;6405;59.208;18.216;2023-03-23T04:08:34;14.70;;;2.80;;
12681;SDS011;6405;59.208;18.216;2023-03-23T04:11:03;15.27;;;3.27;;
12681;SDS011;6405;59.208;18.216;2023-03-23T04:13:29;17.97;;;3.67;;
12681;SDS011;6405;59.208;18.216;2023-03-23T04:15:55;16.43;;;2.87;;
12681;SDS011;6405;59.208;18.216;2023-03-23T04:18:21;15.13;;;3.33;;
12681;SDS011;6405;59.208;18.216;2023-03-23T04:20:48;17.93;;;3.10;;
12681;SDS011;6405;59.208;18.216;2023-03-23T04:23:15;16.70;;;3.40;;
12681;SDS011;6405;59.208;18.216;2023-03-23T04:25:47;13.03;;;3.20;;
12681;SDS011;6405;59.208;18.216;2023-03-23T04:28:14;8.03;;;3.33;;
12681;SDS011;6405;59.208;18.216;2023-03-23T04:30:43;16.67;;;3.20;;
12681;SDS011;6405;59.208;18.216;2023-03-23T04:33:11;14.13;;;3.20;;
12681;SDS011;6405;59.208;18.216;2023-03-23T04:35:41;13.93;;;3.50;;
12681;SDS011;6405;59.208;18.216;2023-03-23T04:38:08;15.10;;;3.47;;
12681;SDS011;6405;59.208;18.216;2023-03-23T04:40:37;17.17;;;3.63;;
12681;SDS011;6405;59.208;18.216;2023-03-23T04:43:06;13.40;;;3.33;;
12681;SDS011;6405;59.208;18.216;2023-03-23T04:45:32;16.23;;;3.80;;
12681;SDS011;6405;59.208;18.216;2023-03-23T04:47:59;14.07;;;3.53;;
12681;SDS011;6405;59.208;18.216;2023-03-23T04:50:29;20.77;;;3.80;;
12681;SDS011;6405;59.208;18.216;2023-03-23T04:52:57;20.47;;;3.97;;
12681;SDS011;6405;59.208;18.216;2023-03-23T04:55:25;15.63;;;3.90;;
12681;SDS011;6405;59.208;18.216;2023-03-23T04:57:51;14.03;;;3.40;;
12681;SDS011;6405;59.208;18.216;2023-03-23T05:00:17;22.10;;;4.40;;
12681;SDS011;6405;59.208;18.216;2023-03-23T05:02:46;17.10;;;3.50;;
12681;SDS011;6405;59.208;18.216;2023-03-23T05:05:12;20.43;;;3.70;;
12681;SDS011;6405;59.208;18.216;2023-03-23T05:07:39;14.00;;;3.37;;
12681;SDS011;6405;59.208;18.216;2023-03-23T05:10:10;20.50;;;3.47;;
12681;SDS011;6405;59.208;18.216;2023-03-23T05:12:37;16.33;;;3.87;;
12681;SDS011;6405;59.208;18.216;2023-03-23T05:15:03;17.00;;;4.43;;
12681;SDS011;6405;59.208;18.216;2023-03-23T05:17:30;13.47;;;3.60;;
12681;SDS011;6405;59.208;18.216;2023-03-23T05:19:57;10.33;;;3.63;;
12681;SDS011;6405;59.208;18.216;2023-03-23T05:22:23;10.80;;;3.07;;
12681;SDS011;6405;59.208;18.216;2023-03-23T05:24:51;14.13;;;3.57;;
12681;SDS011;6405;59.208;18.216;2023-03-23T05:27:17;15.67;;;3.67;;
12681;SDS011;6405;59.208;18.216;2023-03-23T05:29:44;13.60;;;3.27;;
12681;SDS011;6405;59.208;18.216;2023-03-23T05:32:13;21.80;;;3.90;;
12681;SDS011;6405;59.208;18.216;2023-03-23T05:34:40;13.73;;;4.00;;
12681;SDS011;6405;59.208;18.216;2023-03-23T05:37:08;12.40;;;3.83;;
12681;SDS011;6405;59.208;18.216;2023-03-23T05:39:34;11.40;;;2.93;;
12681;SDS011;6405;59.208;18.216;2023-03-23T05:42:01;12.53;;;3.10;;
12681;SDS011;6405;59.208;18.216;2023-03-23T05:44:27;19.93;;;3.50;;
12681;SDS011;6405;59.208;18.216;2023-03-23T05:46:54;15.77;;;3.60;;
12681;SDS011;6405;59.208;18.216;2023-03-23T05:49:20;9.67;;;3.30;;
12681;SDS011;6405;59.208;18.216;2023-03-23T05:51:45;14.47;;;3.23;;
12681;SDS011;6405;59.208;18.216;2023-03-23T05:54:12;21.43;;;3.57;;
12681;SDS011;6405;59.208;18.216;2023-03-23T05:56:39;12.30;;;2.60;;
12681;SDS011;6405;59.208;18.216;2023-03-23T05:59:05;13.93;;;3.80;;
12681;SDS011;6405;59.208;18.216;2023-03-23T06:01:30;15.03;;;2.97;;
12681;SDS011;6405;59.208;18.216;2023-03-23T06:03:56;15.03;;;3.23;;
12681;SDS011;6405;59.208;18.216;2023-03-23T06:06:27;7.40;;;2.63;;
12681;SDS011;6405;59.208;18.216;2023-03-23T06:08:54;12.67;;;2.87;;
12681;SDS011;6405;59.208;18.216;2023-03-23T06:11:21;20.53;;;3.33;;
12681;SDS011;6405;59.208;18.216;2023-03-23T06:13:46;12.37;;;3.77;;
12681;SDS011;6405;59.208;18.216;2023-03-23T06:16:13;17.27;;;4.43;;
12681;SDS011;6405;59.208;18.216;2023-03-23T06:18:38;13.40;;;3.00;;
12681;SDS011;6405;59.208;18.216;2023-03-23T06:21:05;14.10;;;3.53;;
12681;SDS011;6405;59.208;18.216;2023-03-23T06:23:33;12.40;;;3.27;;
12681;SDS011;6405;59.208;18.216;2023-03-23T06:26:00;12.90;;;2.90;;
12681;SDS011;6405;59.208;18.216;2023-03-23T06:28:28;16.57;;;3.07;;
12681;SDS011;6405;59.208;18.216;2023-03-23T06:30:54;14.27;;;3.00;;
12681;SDS011;6405;59.208;18.216;2023-03-23T06:33:20;11.17;;;3.77;;
12681;SDS011;6405;59.208;18.216;2023-03-23T06:35:46;11.03;;;2.97;;
12681;SDS011;6405;59.208;18.216;2023-03-23T06:38:13;18.23;;;3.53;;
12681;SDS011;6405;59.208;18.216;2023-03-23T06:40:39;11.27;;;3.07;;
12681;SDS011;6405;59.208;18.216;2023-03-23T06:43:04;12.23;;;2.97;;
12681;SDS011;6405;59.208;18.216;2023-03-23T06:45:30;14.97;;;2.50;;
12681;SDS011;6405;59.208;18.216;2023-03-23T06:47:56;9.90;;;2.63;;
12681;SDS011;6405;59.208;18.216;2023-03-23T06:50:22;14.03;;;3.00;;
12681;SDS011;6405;59.208;18.216;2023-03-23T06:52:49;14.83;;;2.90;;
12681;SDS011;6405;59.208;18.216;2023-03-23T06:55:16;11.83;;;3.13;;
12681;SDS011;6405;59.208;18.216;2023-03-23T06:57:42;16.40;;;2.87;;
12681;SDS011;6405;59.208;18.216;2023-03-23T07:00:10;13.00;;;2.87;;
12681;SDS011;6405;59.208;18.216;2023-03-23T07:02:38;14.90;;;3.37;;
12681;SDS011;6405;59.208;18.216;2023-03-23T07:05:05;8.37;;;1.80;;
12681;SDS011;6405;59.208;18.216;2023-03-23T07:07:32;13.07;;;2.77;;
12681;SDS011;6405;59.208;18.216;2023-03-23T07:09:58;11.47;;;2.50;;
12681;SDS011;6405;59.208;18.216;2023-03-23T07:12:23;19.43;;;3.43;;
12681;SDS011;6405;59.208;18.216;2023-03-23T07:14:49;9.73;;;2.70;;
12681;SDS011;6405;59.208;18.216;2023-03-23T07:17:15;12.60;;;3.43;;
12681;SDS011;6405;59.208;18.216;2023-03-23T07:19:41;11.53;;;2.40;;
12681;SDS011;6405;59.208;18.216;2023-03-23T07:22:07;10.53;;;2.87;;
12681;SDS011;6405;59.208;18.216;2023-03-23T07:24:33;8.70;;;2.30;;
12681;SDS011;6405;59.208;18.216;2023-03-23T07:27:00;13.50;;;2.93;;
12681;SDS011;6405;59.208;18.216;2023-03-23T07:29:26;10.00;;;2.80;;
12681;SDS011;6405;59.208;18.216;2023-03-23T07:31:53;10.90;;;2.57;;
12681;SDS011;6405;59.208;18.216;2023-03-23T07:34:19;9.53;;;2.37;;
12681;SDS011;6405;59.208;18.216;2023-03-23T07:36:45;8.97;;;2.80;;
12681;SDS011;6405;59.208;18.216;2023-03-23T07:39:11;12.63;;;2.67;;
12681;SDS011;6405;59.208;18.216;2023-03-23T07:41:38;9.70;;;2.63;;
12681;SDS011;6405;59.208;18.216;2023-03-23T07:44:04;8.50;;;2.10;;
12681;SDS011;6405;59.208;18.216;2023-03-23T07:46:30;10.83;;;2.80;;
12681;SDS011;6405;59.208;18.216;2023-03-23T07:48:56;11.23;;;2.30;;
12681;SDS011;6405;59.208;18.216;2023-03-23T07:51:22;9.53;;;3.23;;
12681;SDS011;6405;59.208;18.216;2023-03-23T07:53:49;10.53;;;2.33;;
12681;SDS011;6405;59.208;18.216;2023-03-23T07:56:15;10.57;;;2.43;;
12681;SDS011;6405;59.208;18.216;2023-03-23T07:58:44;13.13;;;3.50;;
12681;SDS011;6405;59.208;18.216;2023-03-23T08:01:13;10.47;;;2.40;;
12681;SDS011;6405;59.208;18.216;2023-03-23T08:03:39;9.57;;;2.50;;
12681;SDS011;6405;59.208;18.216;2023-03-23T08:06:05;12.80;;;2.93;;
12681;SDS011;6405;59.208;18.216;2023-03-23T08:08:31;12.20;;;3.07;;
12681;SDS011;6405;59.208;18.216;2023-03-23T08:10:57;13.93;;;2.60;;
12681;SDS011;6405;59.208;18.216;2023-03-23T08:13:22;13.57;;;2.37;;
12681;SDS011;6405;59.208;18.216;2023-03-23T08:15:48;11.77;;;2.73;;
12681;SDS011;6405;59.208;18.216;2023-03-23T08:18:14;9.40;;;2.90;;
12681;SDS011;6405;59.208;18.216;2023-03-23T08:20:41;12.67;;;3.37;;
12681;SDS011;6405;59.208;18.216;2023-03-23T08:23:07;14.60;;;2.47;;
12681;SDS011;6405;59.208;18.216;2023-03-23T08:25:32;8.97;;;2.57;;
12681;SDS011;6405;59.208;18.216;2023-03-23T08:27:59;6.97;;;1.90;;
12681;SDS011;6405;59.208;18.216;2023-03-23T08:30:26;10.10;;;2.30;;
12681;SDS011;6405;59.208;18.216;2023-03-23T08:32:54;10.83;;;2.10;;
12681;SDS011;6405;59.208;18.216;2023-03-23T08:35:25;9.87;;;2.27;;
12681;SDS011;6405;59.208;18.216;2023-03-23T08:37:51;8.67;;;2.10;;
12681;SDS011;6405;59.208;18.216;2023-03-23T08:40:19;11.33;;;2.23;;
12681;SDS011;6405;59.208;18.216;2023-03-23T08:42:46;9.43;;;2.33;;
12681;SDS011;6405;59.208;18.216;2023-03-23T08:45:14;10.60;;;2.50;;
12681;SDS011;6405;59.208;18.216;2023-03-23T08:47:43;13.03;;;2.50;;
12681;SDS011;6405;59.208;18.216;2023-03-23T08:50:11;15.40;;;2.77;;
12681;SDS011;6405;59.208;18.216;2023-03-23T08:52:38;10.80;;;2.43;;
12681;SDS011;6405;59.208;18.216;2023-03-23T08:55:05;9.20;;;2.30;;
12681;SDS011;6405;59.208;18.216;2023-03-23T08:57:34;9.30;;;2.23;;
12681;SDS011;6405;59.208;18.216;2023-03-23T09:00:01;10.63;;;2.43;;
12681;SDS011;6405;59.208;18.216;2023-03-23T09:02:44;10.70;;;2.07;;
12681;SDS011;6405;59.208;18.216;2023-03-23T09:05:12;9.47;;;2.10;;
12681;SDS011;6405;59.208;18.216;2023-03-23T09:07:39;8.43;;;2.60;;
12681;SDS011;6405;59.208;18.216;2023-03-23T09:10:07;9.60;;;2.67;;
12681;SDS011;6405;59.208;18.216;2023-03-23T09:12:33;12.90;;;2.77;;
12681;SDS011;6405;59.208;18.216;2023-03-23T09:15:01;11.13;;;3.10;;
12681;SDS011;6405;59.208;18.216;2023-03-23T09:17:33;9.87;;;2.20;;
12681;SDS011;6405;59.208;18.216;2023-03-23T09:20:04;12.83;;;2.60;;
12681;SDS011;6405;59.208;18.216;2023-03-23T09:22:36;7.53;;;1.87;;
12681;SDS011;6405;59.208;18.216;2023-03-23T09:25:04;10.10;;;2.83;;
12681;SDS011;6405;59.208;18.216;2023-03-23T09:27:30;12.70;;;2.47;;
12681;SDS011;6405;59.208;18.216;2023-03-23T09:29:56;11.57;;;2.63;;
12681;SDS011;6405;59.208;18.216;2023-03-23T09:32:22;9.77;;;2.60;;
12681;SDS011;6405;59.208;18.216;2023-03-23T09:34:48;11.80;;;2.23;;
12681;SDS011;6405;59.208;18.216;2023-03-23T09:37:14;9.37;;;2.60;;
12681;SDS011;6405;59.208;18.216;2023-03-23T09:39:39;9.50;;;2.27;;
12681;SDS011;6405;59.208;18.216;2023-03-23T09:42:09;14.73;;;2.50;;
12681;SDS011;6405;59.208;18.216;2023-03-23T09:44:53;9.10;;;2.63;;
12681;SDS011;6405;59.208;18.216;2023-03-23T09:50:17;9.23;;;2.73;;
12681;SDS011;6405;59.208;18.216;2023-03-23T09:52:48;15.67;;;2.40;;
12681;SDS011;6405;59.208;18.216;2023-03-23T09:55:36;8.53;;;2.30;;
12681;SDS011;6405;59.208;18.216;2023-03-23T09:58:09;8.70;;;2.20;;
12681;SDS011;6405;59.208;18.216;2023-03-23T10:00:56;10.97;;;2.77;;
12681;SDS011;6405;59.208;18.216;2023-03-23T10:03:42;11.73;;;2.57;;
12681;SDS011;6405;59.208;18.216;2023-03-23T10:06:10;6.97;;;2.10;;
12681;SDS011;6405;59.208;18.216;2023-03-23T10:08:46;11.90;;;2.50;;
12681;SDS011;6405;59.208;18.216;2023-03-23T10:14:02;7.93;;;2.80;;
12681;SDS011;6405;59.208;18.216;2023-03-23T10:16:40;8.47;;;2.60;;
12681;SDS011;6405;59.208;18.216;2023-03-23T10:19:25;7.43;;;2.43;;
12681;SDS011;6405;59.208;18.216;2023-03-23T10:22:08;9.50;;;2.23;;
12681;SDS011;6405;59.208;18.216;2023-03-23T10:24:37;7.43;;;2.23;;
12681;SDS011;6405;59.208;18.216;2023-03-23T10:30:03;7.77;;;2.27;;
12681;SDS011;6405;59.208;18.216;2023-03-23T10:32:54;9.63;;;2.60;;
12681;SDS011;6405;59.208;18.216;2023-03-23T10:35:28;7.97;;;2.47;;
12681;SDS011;6405;59.208;18.216;2023-03-23T10:38:03;12.70;;;2.60;;
12681;SDS011;6405;59.208;18.216;2023-03-23T10:40:38;10.03;;;1.87;;
12681;SDS011;6405;59.208;18.216;2023-03-23T10:43:10;13.57;;;2.97;;
12681;SDS011;6405;59.208;18.216;2023-03-23T10:45:36;12.87;;;2.70;;
12681;SDS011;6405;59.208;18.216;2023-03-23T10:50:39;7.30;;;2.43;;
12681;SDS011;6405;59.208;18.216;2023-03-23T10:53:16;5.00;;;2.33;;
12681;SDS011;6405;59.208;18.216;2023-03-23T10:55:44;9.07;;;2.87;;
12681;SDS011;6405;59.208;18.216;2023-03-23T10:58:12;13.17;;;2.73;;
12681;SDS011;6405;59.208;18.216;2023-03-23T11:00:58;9.57;;;2.30;;
12681;SDS011;6405;59.208;18.216;2023-03-23T11:03:28;8.43;;;2.27;;
12681;SDS011;6405;59.208;18.216;2023-03-23T11:06:01;13.63;;;2.83;;
12681;SDS011;6405;59.208;18.216;2023-03-23T11:08:34;8.60;;;2.03;;
12681;SDS011;6405;59.208;18.216;2023-03-23T11:11:20;7.10;;;2.20;;
12681;SDS011;6405;59.208;18.216;2023-03-23T11:13:56;6.07;;;2.13;;
12681;SDS011;6405;59.208;18.216;2023-03-23T11:18:54;8.60;;;2.40;;
12681;SDS011;6405;59.208;18.216;2023-03-23T11:21:20;8.07;;;2.13;;
12681;SDS011;6405;59.208;18.216;2023-03-23T11:23:58;8.67;;;2.00;;
12681;SDS011;6405;59.208;18.216;2023-03-23T11:26:28;10.27;;;2.20;;
12681;SDS011;6405;59.208;18.216;2023-03-23T11:29:04;6.53;;;2.50;;
12681;SDS011;6405;59.208;18.216;2023-03-23T11:31:35;11.30;;;2.27;;
12681;SDS011;6405;59.208;18.216;2023-03-23T11:34:14;6.80;;;2.60;;
12681;SDS011;6405;59.208;18.216;2023-03-23T11:36:42;7.30;;;2.03;;
12681;SDS011;6405;59.208;18.216;2023-03-23T11:39:20;5.23;;;1.83;;
12681;SDS011;6405;59.208;18.216;2023-03-23T11:42:11;13.17;;;3.80;;
12681;SDS011;6405;59.208;18.216;2023-03-23T11:44:45;10.93;;;2.77;;
12681;SDS011;6405;59.208;18.216;2023-03-23T11:47:20;6.90;;;2.30;;
12681;SDS011;6405;59.208;18.216;2023-03-23T11:50:12;8.47;;;2.40;;
12681;SDS011;6405;59.208;18.216;2023-03-23T11:52:52;11.17;;;2.80;;
12681;SDS011;6405;59.208;18.216;2023-03-23T11:58:15;8.63;;;2.40;;
12681;SDS011;6405;59.208;18.216;2023-03-23T12:00:45;9.37;;;3.20;;
12681;SDS011;6405;59.208;18.216;2023-03-23T12:03:34;10.73;;;2.43;;
12681;SDS011;6405;59.208;18.216;2023-03-23T12:06:32;5.37;;;2.13;;
12681;SDS011;6405;59.208;18.216;2023-03-23T12:09:11;10.97;;;2.70;;
12681;SDS011;6405;59.208;18.216;2023-03-23T12:17:45;10.83;;;2.13;;
12681;SDS011;6405;59.208;18.216;2023-03-23T12:23:02;8.90;;;2.77;;
12681;SDS011;6405;59.208;18.216;2023-03-23T12:25:45;10.73;;;2.80;;
12681;SDS011;6405;59.208;18.216;2023-03-23T12:28:38;10.00;;;2.57;;
12681;SDS011;6405;59.208;18.216;2023-03-23T12:33:53;11.53;;;2.53;;
12681;SDS011;6405;59.208;18.216;2023-03-23T12:37:00;9.73;;;3.03;;
12681;SDS011;6405;59.208;18.216;2023-03-23T12:42:21;12.17;;;3.57;;
12681;SDS011;6405;59.208;18.216;2023-03-23T12:45:41;10.23;;;3.00;;
12681;SDS011;6405;59.208;18.216;2023-03-23T12:48:24;8.77;;;3.20;;
12681;SDS011;6405;59.208;18.216;2023-03-23T12:51:02;11.17;;;3.40;;
12681;SDS011;6405;59.208;18.216;2023-03-23T12:56:43;10.67;;;2.90;;
12681;SDS011;6405;59.208;18.216;2023-03-23T12:59:39;8.40;;;2.63;;
12681;SDS011;6405;59.208;18.216;2023-03-23T13:02:21;5.83;;;1.90;;
12681;SDS011;6405;59.208;18.216;2023-03-23T13:05:00;9.23;;;2.17;;
12681;SDS011;6405;59.208;18.216;2023-03-23T13:07:39;8.17;;;2.60;;
12681;SDS011;6405;59.208;18.216;2023-03-23T13:12:44;8.40;;;1.73;;
12681;SDS011;6405;59.208;18.216;2023-03-23T13:17:48;4.90;;;2.23;;
12681;SDS011;6405;59.208;18.216;2023-03-23T13:20:35;9.27;;;2.30;;
12681;SDS011;6405;59.208;18.216;2023-03-23T13:23:18;9.53;;;2.67;;
12681;SDS011;6405;59.208;18.216;2023-03-23T13:28:26;7.20;;;2.03;;
12681;SDS011;6405;59.208;18.216;2023-03-23T13:30:54;6.87;;;2.40;;
12681;SDS011;6405;59.208;18.216;2023-03-23T13:33:57;7.33;;;2.03;;
12681;SDS011;6405;59.208;18.216;2023-03-23T13:36:43;8.73;;;2.00;;
12681;SDS011;6405;59.208;18.216;2023-03-23T13:44:44;6.83;;;2.00;;
12681;SDS011;6405;59.208;18.216;2023-03-23T13:47:26;5.27;;;1.93;;
12681;SDS011;6405;59.208;18.216;2023-03-23T13:49:57;6.67;;;2.03;;
12681;SDS011;6405;59.208;18.216;2023-03-23T13:52:37;7.90;;;2.47;;
12681;SDS011;6405;59.208;18.216;2023-03-23T13:58:10;7.50;;;2.57;;
12681;SDS011;6405;59.208;18.216;2023-03-23T14:10:51;6.07;;;2.17;;
12681;SDS011;6405;59.208;18.216;2023-03-23T14:16:21;4.83;;;1.90;;
12681;SDS011;6405;59.208;18.216;2023-03-23T14:18:50;5.53;;;1.90;;
12681;SDS011;6405;59.208;18.216;2023-03-23T14:21:32;6.00;;;1.97;;
12681;SDS011;6405;59.208;18.216;2023-03-23T14:24:09;7.27;;;2.00;;
12681;SDS011;6405;59.208;18.216;2023-03-23T14:26:41;8.43;;;2.00;;
12681;SDS011;6405;59.208;18.216;2023-03-23T14:29:09;6.23;;;1.83;;
12681;SDS011;6405;59.208;18.216;2023-03-23T14:31:36;7.57;;;2.33;;
12681;SDS011;6405;59.208;18.216;2023-03-23T14:34:04;7.30;;;2.43;;
12681;SDS011;6405;59.208;18.216;2023-03-23T14:36:41;5.93;;;1.93;;
12681;SDS011;6405;59.208;18.216;2023-03-23T14:41:44;6.73;;;2.00;;
12681;SDS011;6405;59.208;18.216;2023-03-23T14:44:14;5.83;;;1.93;;
12681;SDS011;6405;59.208;18.216;2023-03-23T14:46:43;4.10;;;1.87;;
12681;SDS011;6405;59.208;18.216;2023-03-23T14:49:11;5.67;;;1.83;;
12681;SDS011;6405;59.208;18.216;2023-03-23T14:51:51;3.63;;;1.83;;
12681;SDS011;6405;59.208;18.216;2023-03-23T14:54:22;6.43;;;1.73;;
12681;SDS011;6405;59.208;18.216;2023-03-23T14:56:49;3.30;;;1.70;;
12681;SDS011;6405;59.208;18.216;2023-03-23T14:59:16;7.93;;;2.03;;
12681;SDS011;6405;59.208;18.216;2023-03-23T15:01:42;4.33;;;1.93;;
12681;SDS011;6405;59.208;18.216;2023-03-23T15:04:15;6.20;;;2.33;;
12681;SDS011;6405;59.208;18.216;2023-03-23T15:06:45;3.80;;;1.57;;
12681;SDS011;6405;59.208;18.216;2023-03-23T15:09:15;4.47;;;1.60;;
12681;SDS011;6405;59.208;18.216;2023-03-23T15:11:49;6.70;;;2.40;;
12681;SDS011;6405;59.208;18.216;2023-03-23T15:14:18;3.77;;;1.40;;
12681;SDS011;6405;59.208;18.216;2023-03-23T15:16:48;6.57;;;1.67;;
12681;SDS011;6405;59.208;18.216;2023-03-23T15:19:21;5.13;;;1.50;;
12681;SDS011;6405;59.208;18.216;2023-03-23T15:21:56;5.13;;;1.90;;
12681;SDS011;6405;59.208;18.216;2023-03-23T15:27:26;4.40;;;1.53;;
12681;SDS011;6405;59.208;18.216;2023-03-23T15:29:56;5.30;;;1.70;;
12681;SDS011;6405;59.208;18.216;2023-03-23T15:32:25;6.60;;;2.30;;
12681;SDS011;6405;59.208;18.216;2023-03-23T15:34:52;3.37;;;1.47;;
12681;SDS011;6405;59.208;18.216;2023-03-23T15:37:32;4.40;;;1.80;;
12681;SDS011;6405;59.208;18.216;2023-03-23T15:39:59;5.13;;;1.57;;
12681;SDS011;6405;59.208;18.216;2023-03-23T15:42:32;4.10;;;1.80;;
12681;SDS011;6405;59.208;18.216;2023-03-23T15:47:43;6.70;;;2.00;;
12681;SDS011;6405;59.208;18.216;2023-03-23T15:50:18;3.83;;;1.43;;
12681;SDS011;6405;59.208;18.216;2023-03-23T15:52:56;7.13;;;1.70;;
12681;SDS011;6405;59.208;18.216;2023-03-23T15:55:34;3.77;;;1.93;;
12681;SDS011;6405;59.208;18.216;2023-03-23T15:58:04;5.03;;;1.67;;
12681;SDS011;6405;59.208;18.216;2023-03-23T16:00:36;4.87;;;1.70;;
12681;SDS011;6405;59.208;18.216;2023-03-23T16:03:06;7.93;;;2.10;;
12681;SDS011;6405;59.208;18.216;2023-03-23T16:05:36;5.30;;;1.80;;
12681;SDS011;6405;59.208;18.216;2023-03-23T16:08:01;5.87;;;1.93;;
12681;SDS011;6405;59.208;18.216;2023-03-23T16:10:27;7.30;;;1.90;;
12681;SDS011;6405;59.208;18.216;2023-03-23T16:12:53;4.67;;;2.10;;
12681;SDS011;6405;59.208;18.216;2023-03-23T16:15:19;3.20;;;1.80;;
12681;SDS011;6405;59.208;18.216;2023-03-23T16:17:45;10.80;;;2.63;;
12681;SDS011;6405;59.208;18.216;2023-03-23T16:20:15;5.90;;;2.10;;
12681;SDS011;6405;59.208;18.216;2023-03-23T16:22:46;8.63;;;1.80;;
12681;SDS011;6405;59.208;18.216;2023-03-23T16:25:12;7.23;;;2.10;;
12681;SDS011;6405;59.208;18.216;2023-03-23T16:27:39;5.30;;;2.10;;
12681;SDS011;6405;59.208;18.216;2023-03-23T16:30:16;9.10;;;2.23;;